sensor_id;sensor_type;location;lat;lon;timestamp;temperature;humidity
49222;DHT22;35047;37.588;-122.048;2023-03-24T00:00:15;19.30;59.20
49222;DHT22;35047;37.588;-122.048;2023-03-24T00:02:42;19.20;58.90
49222;DHT22;35047;37.588;-122.048;2023-03-24T00:05:13;19.20;59.70
49222;DHT22;35047;37.588;-122.048;2023-03-24T00:07:40;19.10;59.50
49222;DHT22;35047;37.588;-122.048;2023-03-24T00:10:14;18.90;60.20
49222;DHT22;35047;37.588;-122.048;2023-03-24T00:12:43;18.90;61.00
49222;DHT22;35047;37.588;-122.048;2023-03-24T00:15:13;19.00;61.40
49222;DHT22;35047;37.588;-122.048;2023-03-24T00:17:40;19.10;60.90
49222;DHT22;35047;37.588;-122.048;2023-03-24T00:20:10;19.10;59.70
49222;DHT22;35047;37.588;-122.048;2023-03-24T00:22:42;19.00;59.50
49222;DHT22;35047;37.588;-122.048;2023-03-24T00:25:13;19.00;59.20
49222;DHT22;35047;37.588;-122.048;2023-03-24T00:27:40;18.90;59.10
49222;DHT22;35047;37.588;-122.048;2023-03-24T00:30:08;18.90;58.80
49222;DHT22;35047;37.588;-122.048;2023-03-24T00:32:36;19.00;58.60
49222;DHT22;35047;37.588;-122.048;2023-03-24T00:35:08;18.90;57.70
49222;DHT22;35047;37.588;-122.048;2023-03-24T00:37:36;18.80;59.20
49222;DHT22;35047;37.588;-122.048;2023-03-24T00:40:08;18.70;59.60
49222;DHT22;35047;37.588;-122.048;2023-03-24T00:42:38;18.80;60.10
49222;DHT22;35047;37.588;-122.048;2023-03-24T00:45:08;18.80;60.60
49222;DHT22;35047;37.588;-122.048;2023-03-24T00:47:35;18.80;60.00
49222;DHT22;35047;37.588;-122.048;2023-03-24T00:50:10;18.80;61.00
49222;DHT22;35047;37.588;-122.048;2023-03-24T00:52:37;18.80;60.00
49222;DHT22;35047;37.588;-122.048;2023-03-24T00:55:11;18.90;61.30
49222;DHT22;35047;37.588;-122.048;2023-03-24T00:57:42;19.00;60.60
49222;DHT22;35047;37.588;-122.048;2023-03-24T01:00:21;18.90;61.20
49222;DHT22;35047;37.588;-122.048;2023-03-24T01:02:59;18.90;61.20
49222;DHT22;35047;37.588;-122.048;2023-03-24T01:05:29;18.80;61.80
49222;DHT22;35047;37.588;-122.048;2023-03-24T01:08:00;18.80;62.30
49222;DHT22;35047;37.588;-122.048;2023-03-24T01:10:31;18.80;62.80
49222;DHT22;35047;37.588;-122.048;2023-03-24T01:13:00;18.70;64.10
49222;DHT22;35047;37.588;-122.048;2023-03-24T01:15:30;18.70;64.70
49222;DHT22;35047;37.588;-122.048;2023-03-24T01:17:58;18.80;64.90
49222;DHT22;35047;37.588;-122.048;2023-03-24T01:20:28;18.80;64.90
49222;DHT22;35047;37.588;-122.048;2023-03-24T01:23:02;18.80;65.50
49222;DHT22;35047;37.588;-122.048;2023-03-24T01:25:30;18.80;66.00
49222;DHT22;35047;37.588;-122.048;2023-03-24T01:27:57;18.80;67.60
49222;DHT22;35047;37.588;-122.048;2023-03-24T01:30:25;18.70;67.20
49222;DHT22;35047;37.588;-122.048;2023-03-24T01:32:53;18.70;67.00
49222;DHT22;35047;37.588;-122.048;2023-03-24T01:35:21;18.60;66.90
49222;DHT22;35047;37.588;-122.048;2023-03-24T01:37:48;18.50;66.40
49222;DHT22;35047;37.588;-122.048;2023-03-24T01:40:22;18.40;66.50
49222;DHT22;35047;37.588;-122.048;2023-03-24T01:42:49;18.30;66.80
49222;DHT22;35047;37.588;-122.048;2023-03-24T01:45:40;18.30;67.10
49222;DHT22;35047;37.588;-122.048;2023-03-24T01:50:36;18.20;67.70
49222;DHT22;35047;37.588;-122.048;2023-03-24T01:53:03;18.00;67.90
49222;DHT22;35047;37.588;-122.048;2023-03-24T01:55:30;18.00;68.50
49222;DHT22;35047;37.588;-122.048;2023-03-24T01:57:58;18.00;71.70
49222;DHT22;35047;37.588;-122.048;2023-03-24T02:00:25;17.90;72.30
49222;DHT22;35047;37.588;-122.048;2023-03-24T02:02:56;17.90;73.40
49222;DHT22;35047;37.588;-122.048;2023-03-24T02:05:37;18.00;72.50
49222;DHT22;35047;37.588;-122.048;2023-03-24T02:10:50;17.80;71.00
49222;DHT22;35047;37.588;-122.048;2023-03-24T02:13:17;17.80;70.90
49222;DHT22;35047;37.588;-122.048;2023-03-24T02:19:34;17.70;73.70
49222;DHT22;35047;37.588;-122.048;2023-03-24T02:36:40;17.40;72.80
49222;DHT22;35047;37.588;-122.048;2023-03-24T02:42:46;17.40;77.30
49222;DHT22;35047;37.588;-122.048;2023-03-24T02:45:36;17.40;77.60
49222;DHT22;35047;37.588;-122.048;2023-03-24T02:50:49;17.30;77.00
49222;DHT22;35047;37.588;-122.048;2023-03-24T02:55:52;17.10;78.30
49222;DHT22;35047;37.588;-122.048;2023-03-24T03:01:23;16.90;78.50
49222;DHT22;35047;37.588;-122.048;2023-03-24T03:04:08;16.90;79.00
49222;DHT22;35047;37.588;-122.048;2023-03-24T03:06:39;16.90;78.90
49222;DHT22;35047;37.588;-122.048;2023-03-24T03:09:10;16.90;77.40
49222;DHT22;35047;37.588;-122.048;2023-03-24T03:11:39;16.90;77.20
49222;DHT22;35047;37.588;-122.048;2023-03-24T03:14:13;16.80;77.50
49222;DHT22;35047;37.588;-122.048;2023-03-24T03:16:54;16.80;77.90
49222;DHT22;35047;37.588;-122.048;2023-03-24T03:19:39;16.80;78.20
49222;DHT22;35047;37.588;-122.048;2023-03-24T03:22:13;16.80;76.90
49222;DHT22;35047;37.588;-122.048;2023-03-24T03:24:43;16.70;77.20
49222;DHT22;35047;37.588;-122.048;2023-03-24T03:27:17;16.70;77.00
49222;DHT22;35047;37.588;-122.048;2023-03-24T03:29:50;16.60;77.30
49222;DHT22;35047;37.588;-122.048;2023-03-24T03:32:26;16.60;77.30
49222;DHT22;35047;37.588;-122.048;2023-03-24T03:35:09;16.60;77.10
49222;DHT22;35047;37.588;-122.048;2023-03-24T03:40:19;16.60;77.80
49222;DHT22;35047;37.588;-122.048;2023-03-24T03:42:47;16.60;77.80
49222;DHT22;35047;37.588;-122.048;2023-03-24T03:45:14;16.60;77.30
49222;DHT22;35047;37.588;-122.048;2023-03-24T03:47:41;16.70;77.30
49222;DHT22;35047;37.588;-122.048;2023-03-24T03:50:08;16.70;77.20
49222;DHT22;35047;37.588;-122.048;2023-03-24T03:52:38;16.70;77.30
49222;DHT22;35047;37.588;-122.048;2023-03-24T03:55:07;16.80;77.30
49222;DHT22;35047;37.588;-122.048;2023-03-24T03:57:35;16.80;77.10
49222;DHT22;35047;37.588;-122.048;2023-03-24T04:00:03;16.80;77.60
49222;DHT22;35047;37.588;-122.048;2023-03-24T04:16:17;16.50;77.30
49222;DHT22;35047;37.588;-122.048;2023-03-24T04:19:02;16.60;77.90
49222;DHT22;35047;37.588;-122.048;2023-03-24T04:27:33;16.40;78.90
49222;DHT22;35047;37.588;-122.048;2023-03-24T04:33:06;16.30;79.80
49222;DHT22;35047;37.588;-122.048;2023-03-24T04:35:38;16.10;84.00
49222;DHT22;35047;37.588;-122.048;2023-03-24T04:38:13;15.90;86.20
49222;DHT22;35047;37.588;-122.048;2023-03-24T04:40:45;15.90;88.50
49222;DHT22;35047;37.588;-122.048;2023-03-24T04:43:18;15.90;88.00
49222;DHT22;35047;37.588;-122.048;2023-03-24T04:45:46;16.00;87.40
49222;DHT22;35047;37.588;-122.048;2023-03-24T04:48:17;15.90;86.50
49222;DHT22;35047;37.588;-122.048;2023-03-24T04:53:18;15.80;85.70
49222;DHT22;35047;37.588;-122.048;2023-03-24T04:58:34;15.70;85.90
49222;DHT22;35047;37.588;-122.048;2023-03-24T05:01:00;15.50;85.90
49222;DHT22;35047;37.588;-122.048;2023-03-24T05:03:28;15.50;86.30
49222;DHT22;35047;37.588;-122.048;2023-03-24T05:05:54;15.40;85.70
49222;DHT22;35047;37.588;-122.048;2023-03-24T05:08:21;15.30;85.90
49222;DHT22;35047;37.588;-122.048;2023-03-24T05:10:47;15.20;85.90
49222;DHT22;35047;37.588;-122.048;2023-03-24T05:13:14;15.20;86.30
49222;DHT22;35047;37.588;-122.048;2023-03-24T05:15:41;15.10;86.00
49222;DHT22;35047;37.588;-122.048;2023-03-24T05:18:08;15.10;86.00
49222;DHT22;35047;37.588;-122.048;2023-03-24T05:20:35;15.00;86.90
49222;DHT22;35047;37.588;-122.048;2023-03-24T05:23:01;15.10;87.50
49222;DHT22;35047;37.588;-122.048;2023-03-24T05:25:28;15.10;86.50
49222;DHT22;35047;37.588;-122.048;2023-03-24T05:27:54;15.20;86.20
49222;DHT22;35047;37.588;-122.048;2023-03-24T05:30:21;15.20;85.80
49222;DHT22;35047;37.588;-122.048;2023-03-24T05:32:48;15.10;85.60
49222;DHT22;35047;37.588;-122.048;2023-03-24T05:35:14;15.20;84.80
49222;DHT22;35047;37.588;-122.048;2023-03-24T05:37:41;15.40;84.60
49222;DHT22;35047;37.588;-122.048;2023-03-24T05:40:08;15.30;83.90
49222;DHT22;35047;37.588;-122.048;2023-03-24T05:42:34;15.30;84.20
49222;DHT22;35047;37.588;-122.048;2023-03-24T05:45:01;15.30;83.70
49222;DHT22;35047;37.588;-122.048;2023-03-24T05:47:29;15.20;83.60
49222;DHT22;35047;37.588;-122.048;2023-03-24T05:49:55;15.10;83.50
49222;DHT22;35047;37.588;-122.048;2023-03-24T05:52:22;15.00;83.70
49222;DHT22;35047;37.588;-122.048;2023-03-24T05:54:48;14.90;84.10
49222;DHT22;35047;37.588;-122.048;2023-03-24T05:57:18;14.60;85.10
49222;DHT22;35047;37.588;-122.048;2023-03-24T05:59:44;14.60;86.10
49222;DHT22;35047;37.588;-122.048;2023-03-24T06:02:11;14.60;85.40
49222;DHT22;35047;37.588;-122.048;2023-03-24T06:04:37;14.50;87.00
49222;DHT22;35047;37.588;-122.048;2023-03-24T06:07:04;14.50;86.80
49222;DHT22;35047;37.588;-122.048;2023-03-24T06:09:31;14.50;84.50
49222;DHT22;35047;37.588;-122.048;2023-03-24T06:12:02;14.50;84.90
49222;DHT22;35047;37.588;-122.048;2023-03-24T06:14:28;14.50;85.10
49222;DHT22;35047;37.588;-122.048;2023-03-24T06:16:55;14.50;82.10
49222;DHT22;35047;37.588;-122.048;2023-03-24T06:19:27;14.50;80.90
49222;DHT22;35047;37.588;-122.048;2023-03-24T06:21:56;14.50;80.50
49222;DHT22;35047;37.588;-122.048;2023-03-24T06:24:28;14.50;80.20
49222;DHT22;35047;37.588;-122.048;2023-03-24T06:26:54;14.40;80.80
49222;DHT22;35047;37.588;-122.048;2023-03-24T06:29:28;14.40;80.90
49222;DHT22;35047;37.588;-122.048;2023-03-24T06:31:56;14.40;80.80
49222;DHT22;35047;37.588;-122.048;2023-03-24T06:34:22;14.30;80.50
49222;DHT22;35047;37.588;-122.048;2023-03-24T06:36:51;14.40;79.40
49222;DHT22;35047;37.588;-122.048;2023-03-24T06:39:18;14.30;78.90
49222;DHT22;35047;37.588;-122.048;2023-03-24T06:41:44;14.30;78.70
49222;DHT22;35047;37.588;-122.048;2023-03-24T06:44:11;14.20;78.00
49222;DHT22;35047;37.588;-122.048;2023-03-24T06:46:38;14.10;78.60
49222;DHT22;35047;37.588;-122.048;2023-03-24T06:49:05;14.10;77.40
49222;DHT22;35047;37.588;-122.048;2023-03-24T06:51:32;14.10;77.10
49222;DHT22;35047;37.588;-122.048;2023-03-24T06:53:58;14.00;76.00
49222;DHT22;35047;37.588;-122.048;2023-03-24T06:56:25;14.00;75.50
49222;DHT22;35047;37.588;-122.048;2023-03-24T06:58:52;13.90;75.10
49222;DHT22;35047;37.588;-122.048;2023-03-24T07:01:18;13.80;75.60
49222;DHT22;35047;37.588;-122.048;2023-03-24T07:03:45;13.70;73.90
49222;DHT22;35047;37.588;-122.048;2023-03-24T07:06:13;13.70;75.80
49222;DHT22;35047;37.588;-122.048;2023-03-24T07:08:39;13.70;75.90
49222;DHT22;35047;37.588;-122.048;2023-03-24T07:11:06;13.70;75.40
49222;DHT22;35047;37.588;-122.048;2023-03-24T07:13:34;13.60;74.90
49222;DHT22;35047;37.588;-122.048;2023-03-24T07:16:01;13.50;74.00
49222;DHT22;35047;37.588;-122.048;2023-03-24T07:18:28;13.50;74.90
49222;DHT22;35047;37.588;-122.048;2023-03-24T07:20:54;13.40;75.90
49222;DHT22;35047;37.588;-122.048;2023-03-24T07:23:21;13.40;75.40
49222;DHT22;35047;37.588;-122.048;2023-03-24T07:25:48;13.40;76.10
49222;DHT22;35047;37.588;-122.048;2023-03-24T07:28:14;13.40;76.00
49222;DHT22;35047;37.588;-122.048;2023-03-24T07:30:41;13.40;74.90
49222;DHT22;35047;37.588;-122.048;2023-03-24T07:33:08;13.40;73.50
49222;DHT22;35047;37.588;-122.048;2023-03-24T07:35:39;13.40;73.30
49222;DHT22;35047;37.588;-122.048;2023-03-24T07:38:05;13.40;74.30
49222;DHT22;35047;37.588;-122.048;2023-03-24T07:40:32;13.40;74.60
49222;DHT22;35047;37.588;-122.048;2023-03-24T07:43:02;13.40;75.20
49222;DHT22;35047;37.588;-122.048;2023-03-24T07:45:30;13.50;74.70
49222;DHT22;35047;37.588;-122.048;2023-03-24T07:47:57;13.40;74.60
49222;DHT22;35047;37.588;-122.048;2023-03-24T07:50:30;13.50;75.10
49222;DHT22;35047;37.588;-122.048;2023-03-24T07:52:57;13.50;75.50
49222;DHT22;35047;37.588;-122.048;2023-03-24T07:55:24;13.60;74.90
49222;DHT22;35047;37.588;-122.048;2023-03-24T07:57:51;13.50;74.40
49222;DHT22;35047;37.588;-122.048;2023-03-24T08:00:18;13.60;73.00
49222;DHT22;35047;37.588;-122.048;2023-03-24T08:02:47;13.50;73.10
49222;DHT22;35047;37.588;-122.048;2023-03-24T08:05:13;13.50;73.50
49222;DHT22;35047;37.588;-122.048;2023-03-24T08:07:42;13.50;73.70
49222;DHT22;35047;37.588;-122.048;2023-03-24T08:10:13;13.50;74.40
49222;DHT22;35047;37.588;-122.048;2023-03-24T08:12:40;13.50;73.70
49222;DHT22;35047;37.588;-122.048;2023-03-24T08:15:08;13.40;73.80
49222;DHT22;35047;37.588;-122.048;2023-03-24T08:17:34;13.40;73.90
49222;DHT22;35047;37.588;-122.048;2023-03-24T08:20:02;13.40;73.20
49222;DHT22;35047;37.588;-122.048;2023-03-24T08:22:37;13.40;72.70
49222;DHT22;35047;37.588;-122.048;2023-03-24T08:25:05;13.50;72.90
49222;DHT22;35047;37.588;-122.048;2023-03-24T08:27:32;13.50;73.20
49222;DHT22;35047;37.588;-122.048;2023-03-24T08:29:58;13.50;72.40
49222;DHT22;35047;37.588;-122.048;2023-03-24T08:32:25;13.50;73.20
49222;DHT22;35047;37.588;-122.048;2023-03-24T08:34:51;13.50;73.30
49222;DHT22;35047;37.588;-122.048;2023-03-24T08:37:20;13.40;73.50
49222;DHT22;35047;37.588;-122.048;2023-03-24T08:39:46;13.50;72.80
49222;DHT22;35047;37.588;-122.048;2023-03-24T08:42:13;13.40;71.90
49222;DHT22;35047;37.588;-122.048;2023-03-24T08:44:39;13.50;71.40
49222;DHT22;35047;37.588;-122.048;2023-03-24T08:47:06;13.50;70.80
49222;DHT22;35047;37.588;-122.048;2023-03-24T08:49:33;13.40;70.60
49222;DHT22;35047;37.588;-122.048;2023-03-24T08:51:59;13.40;70.80
49222;DHT22;35047;37.588;-122.048;2023-03-24T08:54:26;13.40;71.30
49222;DHT22;35047;37.588;-122.048;2023-03-24T08:56:52;13.50;70.60
49222;DHT22;35047;37.588;-122.048;2023-03-24T08:59:20;13.50;71.30
49222;DHT22;35047;37.588;-122.048;2023-03-24T09:01:46;13.60;71.60
49222;DHT22;35047;37.588;-122.048;2023-03-24T09:04:13;13.60;71.40
49222;DHT22;35047;37.588;-122.048;2023-03-24T09:06:40;13.70;71.50
49222;DHT22;35047;37.588;-122.048;2023-03-24T09:09:06;13.80;70.70
49222;DHT22;35047;37.588;-122.048;2023-03-24T09:11:33;13.80;70.30
49222;DHT22;35047;37.588;-122.048;2023-03-24T09:13:59;13.80;70.40
49222;DHT22;35047;37.588;-122.048;2023-03-24T09:16:26;13.90;69.80
49222;DHT22;35047;37.588;-122.048;2023-03-24T09:18:53;13.90;68.90
49222;DHT22;35047;37.588;-122.048;2023-03-24T09:21:19;13.90;69.60
49222;DHT22;35047;37.588;-122.048;2023-03-24T09:23:46;14.00;70.40
49222;DHT22;35047;37.588;-122.048;2023-03-24T09:26:12;14.00;68.90
49222;DHT22;35047;37.588;-122.048;2023-03-24T09:28:40;14.00;67.40
49222;DHT22;35047;37.588;-122.048;2023-03-24T09:31:06;14.00;67.90
49222;DHT22;35047;37.588;-122.048;2023-03-24T09:33:33;14.00;68.50
49222;DHT22;35047;37.588;-122.048;2023-03-24T09:36:01;14.10;68.30
49222;DHT22;35047;37.588;-122.048;2023-03-24T09:38:28;14.10;68.20
49222;DHT22;35047;37.588;-122.048;2023-03-24T09:40:58;14.10;68.70
49222;DHT22;35047;37.588;-122.048;2023-03-24T09:43:35;14.10;68.60
49222;DHT22;35047;37.588;-122.048;2023-03-24T09:46:05;14.10;69.50
49222;DHT22;35047;37.588;-122.048;2023-03-24T09:48:56;14.20;69.70
49222;DHT22;35047;37.588;-122.048;2023-03-24T09:56:22;14.20;69.40
49222;DHT22;35047;37.588;-122.048;2023-03-24T09:59:31;14.20;69.20
49222;DHT22;35047;37.588;-122.048;2023-03-24T10:01:59;14.20;69.20
49222;DHT22;35047;37.588;-122.048;2023-03-24T10:04:27;14.20;68.80
49222;DHT22;35047;37.588;-122.048;2023-03-24T10:09:56;14.10;67.50
49222;DHT22;35047;37.588;-122.048;2023-03-24T10:15:13;14.10;68.10
49222;DHT22;35047;37.588;-122.048;2023-03-24T10:18:05;14.10;68.20
49222;DHT22;35047;37.588;-122.048;2023-03-24T10:20:53;14.00;68.80
49222;DHT22;35047;37.588;-122.048;2023-03-24T10:23:44;13.90;68.00
49222;DHT22;35047;37.588;-122.048;2023-03-24T10:26:44;14.00;68.10
49222;DHT22;35047;37.588;-122.048;2023-03-24T10:29:31;14.10;68.10
49222;DHT22;35047;37.588;-122.048;2023-03-24T10:32:05;14.00;68.60
49222;DHT22;35047;37.588;-122.048;2023-03-24T10:34:37;14.00;68.90
49222;DHT22;35047;37.588;-122.048;2023-03-24T10:37:04;14.10;68.40
49222;DHT22;35047;37.588;-122.048;2023-03-24T10:39:33;14.00;68.30
49222;DHT22;35047;37.588;-122.048;2023-03-24T10:42:00;14.00;68.10
49222;DHT22;35047;37.588;-122.048;2023-03-24T10:44:27;14.00;68.00
49222;DHT22;35047;37.588;-122.048;2023-03-24T10:46:58;14.00;68.70
49222;DHT22;35047;37.588;-122.048;2023-03-24T10:49:27;13.90;68.90
49222;DHT22;35047;37.588;-122.048;2023-03-24T10:52:00;13.90;69.10
49222;DHT22;35047;37.588;-122.048;2023-03-24T10:54:30;13.90;68.60
49222;DHT22;35047;37.588;-122.048;2023-03-24T10:59:27;13.80;69.30
49222;DHT22;35047;37.588;-122.048;2023-03-24T11:04:39;13.80;69.80
49222;DHT22;35047;37.588;-122.048;2023-03-24T11:07:18;13.70;70.20
49222;DHT22;35047;37.588;-122.048;2023-03-24T11:20:34;13.50;69.50
49222;DHT22;35047;37.588;-122.048;2023-03-24T11:23:02;13.50;69.30
49222;DHT22;35047;37.588;-122.048;2023-03-24T11:25:38;13.50;69.30
49222;DHT22;35047;37.588;-122.048;2023-03-24T11:28:14;13.50;70.00
49222;DHT22;35047;37.588;-122.048;2023-03-24T11:30:51;13.50;70.20
49222;DHT22;35047;37.588;-122.048;2023-03-24T11:33:29;13.50;69.90
49222;DHT22;35047;37.588;-122.048;2023-03-24T11:36:02;13.40;70.00
49222;DHT22;35047;37.588;-122.048;2023-03-24T11:38:33;13.40;69.90
49222;DHT22;35047;37.588;-122.048;2023-03-24T11:41:02;13.40;70.30
49222;DHT22;35047;37.588;-122.048;2023-03-24T11:43:32;13.30;70.50
49222;DHT22;35047;37.588;-122.048;2023-03-24T11:46:15;13.30;70.30
49222;DHT22;35047;37.588;-122.048;2023-03-24T11:48:57;13.30;70.40
49222;DHT22;35047;37.588;-122.048;2023-03-24T11:51:33;13.20;70.40
49222;DHT22;35047;37.588;-122.048;2023-03-24T11:54:04;13.20;70.60
49222;DHT22;35047;37.588;-122.048;2023-03-24T11:56:53;13.20;70.90
49222;DHT22;35047;37.588;-122.048;2023-03-24T11:59:45;13.20;70.90
49222;DHT22;35047;37.588;-122.048;2023-03-24T12:08:29;13.00;70.40
49222;DHT22;35047;37.588;-122.048;2023-03-24T12:14:02;12.90;71.20
49222;DHT22;35047;37.588;-122.048;2023-03-24T12:20:37;12.80;71.40
49222;DHT22;35047;37.588;-122.048;2023-03-24T12:25:32;12.70;72.00
49222;DHT22;35047;37.588;-122.048;2023-03-24T12:39:49;12.60;72.20
49222;DHT22;35047;37.588;-122.048;2023-03-24T12:42:17;12.60;69.80
49222;DHT22;35047;37.588;-122.048;2023-03-24T12:55:42;12.40;68.80
49222;DHT22;35047;37.588;-122.048;2023-03-24T13:07:31;12.40;68.70
49222;DHT22;35047;37.588;-122.048;2023-03-24T13:10:19;12.40;69.40
49222;DHT22;35047;37.588;-122.048;2023-03-24T13:31:23;12.40;71.10
49222;DHT22;35047;37.588;-122.048;2023-03-24T13:33:51;12.40;71.40
49222;DHT22;35047;37.588;-122.048;2023-03-24T13:36:45;12.30;71.50
49222;DHT22;35047;37.588;-122.048;2023-03-24T13:39:15;12.30;71.50
49222;DHT22;35047;37.588;-122.048;2023-03-24T13:41:52;12.30;71.30
49222;DHT22;35047;37.588;-122.048;2023-03-24T13:47:17;12.30;71.50
49222;DHT22;35047;37.588;-122.048;2023-03-24T13:50:00;12.40;71.10
49222;DHT22;35047;37.588;-122.048;2023-03-24T13:52:38;12.30;70.90
49222;DHT22;35047;37.588;-122.048;2023-03-24T13:55:26;12.30;72.00
49222;DHT22;35047;37.588;-122.048;2023-03-24T13:58:00;12.30;71.40
49222;DHT22;35047;37.588;-122.048;2023-03-24T14:00:30;12.30;71.20
49222;DHT22;35047;37.588;-122.048;2023-03-24T14:03:13;12.30;71.10
49222;DHT22;35047;37.588;-122.048;2023-03-24T14:08:10;12.20;70.80
49222;DHT22;35047;37.588;-122.048;2023-03-24T14:13:32;12.20;71.20
49222;DHT22;35047;37.588;-122.048;2023-03-24T14:15:59;12.10;71.10
49222;DHT22;35047;37.588;-122.048;2023-03-24T14:18:47;12.10;71.00
49222;DHT22;35047;37.588;-122.048;2023-03-24T14:21:14;12.10;71.10
49222;DHT22;35047;37.588;-122.048;2023-03-24T14:26:28;12.00;72.20
49222;DHT22;35047;37.588;-122.048;2023-03-24T14:28:59;12.00;72.60
49222;DHT22;35047;37.588;-122.048;2023-03-24T14:31:27;12.00;72.70
49222;DHT22;35047;37.588;-122.048;2023-03-24T14:36:42;11.90;73.00
49222;DHT22;35047;37.588;-122.048;2023-03-24T14:44:57;12.00;73.00
49222;DHT22;35047;37.588;-122.048;2023-03-24T14:47:33;12.00;72.90
49222;DHT22;35047;37.588;-122.048;2023-03-24T14:50:09;12.10;72.70
49222;DHT22;35047;37.588;-122.048;2023-03-24T14:52:43;12.10;72.90
49222;DHT22;35047;37.588;-122.048;2023-03-24T14:55:16;12.20;72.60
49222;DHT22;35047;37.588;-122.048;2023-03-24T14:57:56;12.20;73.30
49222;DHT22;35047;37.588;-122.048;2023-03-24T15:00:37;12.30;73.00
49222;DHT22;35047;37.588;-122.048;2023-03-24T15:03:40;12.30;74.00
49222;DHT22;35047;37.588;-122.048;2023-03-24T15:06:16;12.40;74.20
49222;DHT22;35047;37.588;-122.048;2023-03-24T15:08:52;12.40;74.60
49222;DHT22;35047;37.588;-122.048;2023-03-24T15:11:22;12.50;74.40
49222;DHT22;35047;37.588;-122.048;2023-03-24T15:13:52;12.50;74.30
49222;DHT22;35047;37.588;-122.048;2023-03-24T15:16:27;12.60;74.30
49222;DHT22;35047;37.588;-122.048;2023-03-24T15:19:17;12.70;73.90
49222;DHT22;35047;37.588;-122.048;2023-03-24T15:21:48;12.70;73.60
49222;DHT22;35047;37.588;-122.048;2023-03-24T15:26:52;12.80;72.80
49222;DHT22;35047;37.588;-122.048;2023-03-24T15:29:19;12.90;72.90
49222;DHT22;35047;37.588;-122.048;2023-03-24T15:31:46;13.00;71.30
49222;DHT22;35047;37.588;-122.048;2023-03-24T15:37:03;13.10;71.00
49222;DHT22;35047;37.588;-122.048;2023-03-24T15:39:38;13.20;71.30
49222;DHT22;35047;37.588;-122.048;2023-03-24T15:42:16;13.20;71.40
49222;DHT22;35047;37.588;-122.048;2023-03-24T15:44:42;13.30;69.00
49222;DHT22;35047;37.588;-122.048;2023-03-24T15:47:22;13.30;68.90
49222;DHT22;35047;37.588;-122.048;2023-03-24T15:49:59;13.40;69.90
49222;DHT22;35047;37.588;-122.048;2023-03-24T15:52:32;13.30;69.70
49222;DHT22;35047;37.588;-122.048;2023-03-24T15:57:47;13.30;69.50
49222;DHT22;35047;37.588;-122.048;2023-03-24T16:02:53;13.40;68.90
49222;DHT22;35047;37.588;-122.048;2023-03-24T16:05:26;13.50;68.80
49222;DHT22;35047;37.588;-122.048;2023-03-24T16:08:27;13.60;69.80
49222;DHT22;35047;37.588;-122.048;2023-03-24T16:11:06;13.70;69.40
49222;DHT22;35047;37.588;-122.048;2023-03-24T16:13:36;13.80;68.50
49222;DHT22;35047;37.588;-122.048;2023-03-24T16:18:44;13.90;67.60
49222;DHT22;35047;37.588;-122.048;2023-03-24T16:21:21;14.00;68.10
49222;DHT22;35047;37.588;-122.048;2023-03-24T16:23:49;14.10;67.60
49222;DHT22;35047;37.588;-122.048;2023-03-24T16:26:18;14.20;67.00
49222;DHT22;35047;37.588;-122.048;2023-03-24T16:28:46;14.20;66.80
49222;DHT22;35047;37.588;-122.048;2023-03-24T16:33:47;14.40;68.00
49222;DHT22;35047;37.588;-122.048;2023-03-24T16:36:14;14.50;68.30
49222;DHT22;35047;37.588;-122.048;2023-03-24T16:38:42;14.60;67.00
49222;DHT22;35047;37.588;-122.048;2023-03-24T16:41:09;14.70;67.00
49222;DHT22;35047;37.588;-122.048;2023-03-24T16:43:42;14.80;65.90
49222;DHT22;35047;37.588;-122.048;2023-03-24T16:46:30;14.80;65.60
49222;DHT22;35047;37.588;-122.048;2023-03-24T16:48:58;14.80;65.80
49222;DHT22;35047;37.588;-122.048;2023-03-24T16:51:24;15.00;66.40
49222;DHT22;35047;37.588;-122.048;2023-03-24T16:53:53;15.20;64.90
49222;DHT22;35047;37.588;-122.048;2023-03-24T16:56:20;15.30;64.70
49222;DHT22;35047;37.588;-122.048;2023-03-24T16:58:48;15.50;65.30
49222;DHT22;35047;37.588;-122.048;2023-03-24T17:04:03;15.80;64.30
49222;DHT22;35047;37.588;-122.048;2023-03-24T17:06:35;16.00;63.70
49222;DHT22;35047;37.588;-122.048;2023-03-24T17:09:03;16.30;62.90
49222;DHT22;35047;37.588;-122.048;2023-03-24T17:11:38;16.50;64.10
49222;DHT22;35047;37.588;-122.048;2023-03-24T17:14:06;16.80;62.60
49222;DHT22;35047;37.588;-122.048;2023-03-24T17:16:40;17.00;62.20
49222;DHT22;35047;37.588;-122.048;2023-03-24T17:19:16;17.30;61.90
49222;DHT22;35047;37.588;-122.048;2023-03-24T17:22:03;17.60;59.80
49222;DHT22;35047;37.588;-122.048;2023-03-24T17:24:33;17.80;56.90
49222;DHT22;35047;37.588;-122.048;2023-03-24T17:27:01;17.90;54.80
49222;DHT22;35047;37.588;-122.048;2023-03-24T17:29:28;18.10;55.50
49222;DHT22;35047;37.588;-122.048;2023-03-24T17:31:54;18.10;55.00
49222;DHT22;35047;37.588;-122.048;2023-03-24T17:34:21;18.30;57.40
49222;DHT22;35047;37.588;-122.048;2023-03-24T17:36:47;18.60;56.70
49222;DHT22;35047;37.588;-122.048;2023-03-24T17:39:15;18.80;57.40
49222;DHT22;35047;37.588;-122.048;2023-03-24T17:41:42;19.00;56.90
49222;DHT22;35047;37.588;-122.048;2023-03-24T17:44:09;19.20;57.70
49222;DHT22;35047;37.588;-122.048;2023-03-24T17:46:36;19.40;55.20
49222;DHT22;35047;37.588;-122.048;2023-03-24T17:49:03;19.50;53.20
49222;DHT22;35047;37.588;-122.048;2023-03-24T17:51:29;19.60;53.60
49222;DHT22;35047;37.588;-122.048;2023-03-24T17:53:56;19.80;54.30
49222;DHT22;35047;37.588;-122.048;2023-03-24T17:56:23;20.00;53.40
49222;DHT22;35047;37.588;-122.048;2023-03-24T17:58:49;20.20;53.90
49222;DHT22;35047;37.588;-122.048;2023-03-24T18:01:19;20.30;53.50
49222;DHT22;35047;37.588;-122.048;2023-03-24T18:03:46;20.50;53.60
49222;DHT22;35047;37.588;-122.048;2023-03-24T18:06:14;20.60;51.40
49222;DHT22;35047;37.588;-122.048;2023-03-24T18:08:44;20.80;51.90
49222;DHT22;35047;37.588;-122.048;2023-03-24T18:11:12;21.00;51.50
49222;DHT22;35047;37.588;-122.048;2023-03-24T18:13:40;21.20;51.80
49222;DHT22;35047;37.588;-122.048;2023-03-24T18:16:07;21.30;50.30
49222;DHT22;35047;37.588;-122.048;2023-03-24T18:18:34;21.30;49.30
49222;DHT22;35047;37.588;-122.048;2023-03-24T18:21:01;21.30;49.10
49222;DHT22;35047;37.588;-122.048;2023-03-24T18:23:27;21.30;51.50
49222;DHT22;35047;37.588;-122.048;2023-03-24T18:26:03;21.30;48.60